createdAt,value
2019-02-04T00:01:56.265Z,101228.92
2019-02-04T00:04:30.568Z,101239.12
2019-02-04T00:07:01.725Z,101240.46
2019-02-04T00:09:33.361Z,101252.02
2019-02-04T00:12:04.941Z,101258.16
2019-02-04T00:14:36.623Z,101249.76
2019-02-04T00:17:08.531Z,101262.16
2019-02-04T00:19:40.260Z,101262.14
2019-02-04T00:22:12.372Z,101263.09
2019-02-04T00:24:43.959Z,101264.86
2019-02-04T00:27:15.593Z,101272.85
2019-02-04T00:29:47.626Z,101271.06
2019-02-04T00:32:19.274Z,101283.87
2019-02-04T00:34:51.609Z,101292.28
2019-02-04T00:37:23.200Z,101286.98
2019-02-04T00:39:54.778Z,101290.52
2019-02-04T00:42:26.429Z,101304.22
2019-02-04T00:44:58.077Z,101314.87
2019-02-04T00:47:29.805Z,101322.40
2019-02-04T00:50:16.090Z,101323.31
2019-02-04T00:52:47.799Z,101331.31
2019-02-04T00:55:19.394Z,101329.52
2019-02-04T00:57:51.081Z,101332.19
2019-02-04T01:00:29.368Z,101332.68
2019-02-04T01:03:01.020Z,101337.48
2019-02-04T01:05:32.806Z,101343.70
2019-02-04T01:08:05.268Z,101342.82
2019-02-04T01:10:36.855Z,101349.96
2019-02-04T01:13:08.522Z,101356.11
2019-02-04T01:15:40.190Z,101361.22
2019-02-04T01:18:11.809Z,101362.06
2019-02-04T01:20:43.526Z,101366.48
2019-02-04T01:23:15.212Z,101359.41
2019-02-04T01:25:46.834Z,101374.02
2019-02-04T01:28:20.349Z,101375.83
2019-02-04T01:30:52.069Z,101377.64
2019-02-04T01:33:23.705Z,101391.38
2019-02-04T01:35:55.359Z,101389.54
2019-02-04T01:38:27.033Z,101396.29
2019-02-04T01:40:58.666Z,101400.68
2019-02-04T01:43:30.721Z,101406.61
2019-02-04T01:46:02.492Z,101406.55
2019-02-04T01:48:34.260Z,101413.63
2019-02-04T01:51:06.070Z,101420.35
2019-02-04T01:53:37.669Z,101419.40
2019-02-04T01:56:09.541Z,101425.09
2019-02-04T01:58:41.113Z,101436.67
2019-02-04T02:01:12.701Z,101422.92
2019-02-04T02:03:45.346Z,101422.55
2019-02-04T02:06:16.926Z,101432.77
2019-02-04T02:08:48.616Z,101438.46
2019-02-04T02:11:20.244Z,101435.64
2019-02-04T02:13:51.821Z,101440.92
2019-02-04T02:16:23.411Z,101432.10
2019-02-04T02:18:55.738Z,101447.21
2019-02-04T02:21:27.432Z,101453.38
2019-02-04T02:23:59.018Z,101448.05
2019-02-04T02:26:30.704Z,101450.70
2019-02-04T02:29:02.353Z,101456.98
2019-02-04T02:31:34.375Z,101456.15
2019-02-04T02:34:05.972Z,101465.84
2019-02-04T02:36:37.549Z,101467.67
2019-02-04T02:39:09.376Z,101470.39
2019-02-04T02:41:40.967Z,101480.08
2019-02-04T02:44:12.939Z,101489.80
2019-02-04T02:46:44.523Z,101490.69
2019-02-04T02:49:16.565Z,101502.59
2019-02-04T02:51:48.237Z,101502.59
2019-02-04T02:54:19.817Z,101508.31
2019-02-04T02:56:51.846Z,101519.36
2019-02-04T02:59:23.539Z,101526.58
2019-02-04T03:01:55.164Z,101531.45
2019-02-04T03:04:26.849Z,101549.50
2019-02-04T03:06:58.468Z,101554.41
2019-02-04T03:09:30.076Z,101560.13
2019-02-04T03:12:01.694Z,101567.69
2019-02-04T03:14:33.351Z,101578.75
2019-02-04T03:17:05.041Z,101573.35
2019-02-04T03:19:37.244Z,101580.51
2019-02-04T03:22:08.894Z,101585.39
2019-02-04T03:24:40.542Z,101587.62
2019-02-04T03:27:12.170Z,101598.28
2019-02-04T03:29:43.937Z,101608.33
2019-02-04T03:32:15.554Z,101611.14
2019-02-04T03:34:47.249Z,101617.81
2019-02-04T03:37:18.829Z,101613.81
2019-02-04T03:39:51.492Z,101626.72
2019-02-04T03:42:23.518Z,101640.97
2019-02-04T03:44:55.475Z,101647.98
2019-02-04T03:47:28.133Z,101640.08
2019-02-04T03:50:01.305Z,101645.95
2019-02-04T03:52:34.103Z,101652.39
2019-02-04T03:55:08.895Z,101651.95
2019-02-04T03:57:41.655Z,101653.63
2019-02-04T04:00:34.666Z,101665.16
2019-02-04T04:03:06.258Z,101672.29
2019-02-04T04:05:37.993Z,101666.02
2019-02-04T04:08:10.114Z,101667.34
2019-02-04T04:10:41.736Z,101680.05
2019-02-04T04:13:13.453Z,101681.85
2019-02-04T04:15:45.465Z,101683.77
2019-02-04T04:18:17.048Z,101684.45
2019-02-04T04:20:48.609Z,101693.87
2019-02-04T04:23:20.228Z,101689.00
2019-02-04T04:25:52.012Z,101691.36
2019-02-04T04:28:24.091Z,101697.02
2019-02-04T04:30:55.808Z,101697.58
2019-02-04T04:33:27.439Z,101697.14
2019-02-04T04:35:59.149Z,101698.38
2019-02-04T04:38:31.243Z,101705.45
2019-02-04T04:41:03.107Z,101716.08
2019-02-04T04:43:34.814Z,101721.00
2019-02-04T04:46:06.408Z,101720.97
2019-02-04T04:48:38.021Z,101726.17
2019-02-04T04:51:09.610Z,101727.22
2019-02-04T04:53:41.263Z,101735.19
2019-02-04T04:56:12.953Z,101740.48
2019-02-04T04:58:44.628Z,101745.37
2019-02-04T05:01:16.347Z,101755.09
2019-02-04T05:03:48.203Z,101760.10
2019-02-04T05:06:19.849Z,101758.38
2019-02-04T05:08:51.550Z,101759.16
2019-02-04T05:11:23.210Z,101765.87
2019-02-04T05:13:54.863Z,101774.23
2019-02-04T05:16:26.444Z,101781.88
2019-02-04T05:18:58.030Z,101786.56
2019-02-04T05:21:29.710Z,101790.55
2019-02-04T05:24:01.756Z,101799.48
2019-02-04T05:26:33.487Z,101797.45
2019-02-04T05:29:05.405Z,101799.09
2019-02-04T05:31:37.139Z,101801.75
2019-02-04T05:34:08.699Z,101806.59
2019-02-04T05:36:40.347Z,101810.69
2019-02-04T05:39:12.445Z,101815.12
2019-02-04T05:41:44.351Z,101829.61
2019-02-04T05:44:15.941Z,101829.09
2019-02-04T05:46:47.589Z,101836.55
2019-02-04T05:49:19.168Z,101833.98
2019-02-04T05:51:50.751Z,101839.30
2019-02-04T05:54:22.779Z,101849.17
2019-02-04T05:56:54.366Z,101847.33
2019-02-04T05:59:26.023Z,101847.30
2019-02-04T06:01:57.695Z,101853.95
2019-02-04T06:04:29.342Z,101849.83
2019-02-04T06:07:00.984Z,101864.45
2019-02-04T06:09:32.805Z,101872.25
2019-02-04T06:12:04.401Z,101874.37
2019-02-04T06:14:36.506Z,101885.53
2019-02-04T06:17:09.851Z,101886.58
2019-02-04T06:19:41.515Z,101891.77
2019-02-04T06:22:13.183Z,101897.52
2019-02-04T06:24:45.416Z,101904.48
2019-02-04T06:27:18.984Z,101915.33
2019-02-04T06:29:50.967Z,101927.25
2019-02-04T06:32:22.619Z,101924.24
2019-02-04T06:34:54.231Z,101934.87
2019-02-04T06:37:25.990Z,101936.73
2019-02-04T06:39:58.027Z,101940.19
2019-02-04T06:42:29.694Z,101950.36
2019-02-04T06:45:01.263Z,101950.61
2019-02-04T06:47:32.929Z,101960.64
2019-02-04T06:50:09.514Z,101956.73
2019-02-04T06:52:41.532Z,101963.16
2019-02-04T06:55:24.193Z,101967.91
2019-02-04T06:57:56.908Z,101975.19
2019-02-04T07:02:22.558Z,101977.50
2019-02-04T07:04:54.156Z,101985.17
2019-02-04T07:07:26.261Z,101991.28
2019-02-04T07:09:58.206Z,101990.41
2019-02-04T07:12:29.784Z,101993.22
2019-02-04T07:15:01.359Z,101995.34
2019-02-04T07:17:34.028Z,102005.34
2019-02-04T07:20:13.717Z,102003.70
2019-02-04T07:22:45.306Z,102002.75
2019-02-04T07:25:17.684Z,102010.42
2019-02-04T07:27:49.357Z,102022.46
2019-02-04T07:30:27.331Z,102025.65
2019-02-04T07:32:59.394Z,102028.84
2019-02-04T07:35:31.142Z,102025.05
2019-02-04T07:38:02.891Z,102033.55
2019-02-04T07:40:35.211Z,102036.17
2019-02-04T07:43:06.865Z,102048.09
2019-02-04T07:45:38.478Z,102049.42
2019-02-04T07:48:10.177Z,102042.52
2019-02-04T07:50:41.850Z,102046.54
2019-02-04T07:53:13.494Z,102041.75
2019-02-04T07:55:45.155Z,102053.00
2019-02-04T07:58:16.824Z,102050.10
2019-02-04T08:00:48.398Z,102051.70
2019-02-04T08:03:20.065Z,102053.34
2019-02-04T08:05:51.717Z,102062.53
2019-02-04T08:08:23.435Z,102066.28
2019-02-04T08:10:55.042Z,102068.56
2019-02-04T08:13:26.583Z,102075.37
2019-02-04T08:15:58.260Z,102081.60
2019-02-04T08:18:31.082Z,102083.00
2019-02-04T08:21:02.828Z,102084.37
2019-02-04T08:23:35.560Z,102088.31
2019-02-04T08:26:07.544Z,102097.20
2019-02-04T08:28:39.150Z,102095.91
2019-02-04T08:31:10.817Z,102102.14
2019-02-04T08:33:42.972Z,102098.14
2019-02-04T08:36:14.815Z,102105.86
2019-02-04T08:38:46.599Z,102111.98
2019-02-04T08:41:18.215Z,102112.44
2019-02-04T08:43:50.074Z,102120.11
2019-02-04T08:46:21.869Z,102126.16
2019-02-04T08:48:53.668Z,102125.37
2019-02-04T08:51:25.310Z,102130.20
2019-02-04T08:53:56.975Z,102134.27
2019-02-04T08:56:28.668Z,102132.06
2019-02-04T08:59:00.326Z,102138.06
2019-02-04T09:01:31.932Z,102141.64
2019-02-04T09:06:32.906Z,102151.14
2019-02-04T09:09:07.515Z,102153.80
2019-02-04T09:11:39.309Z,102157.41
2019-02-04T09:14:10.985Z,102166.08
2019-02-04T09:16:42.754Z,102169.00
2019-02-04T09:19:14.467Z,102170.69
2019-02-04T09:21:46.220Z,102169.06
2019-02-04T09:24:17.793Z,102176.36
2019-02-04T09:26:49.409Z,102181.09
2019-02-04T09:29:21.109Z,102187.92
2019-02-04T09:31:52.706Z,102185.33
2019-02-04T09:34:24.276Z,102194.30
2019-02-04T09:36:55.971Z,102197.66
2019-02-04T09:39:27.790Z,102197.94
2019-02-04T09:41:59.441Z,102202.52
2019-02-04T09:44:31.051Z,102204.73
2019-02-04T09:47:02.619Z,102212.30
2019-02-04T09:49:34.282Z,102206.45
2019-02-04T09:52:06.089Z,102211.33
2019-02-04T09:54:37.912Z,102215.26
2019-02-04T09:57:09.589Z,102216.01
2019-02-04T09:59:41.268Z,102219.42
2019-02-04T10:02:12.893Z,102219.98
2019-02-04T10:04:44.651Z,102220.22
2019-02-04T10:07:16.318Z,102221.56
2019-02-04T10:09:47.881Z,102223.13
2019-02-04T10:12:19.585Z,102224.06
2019-02-04T10:14:51.286Z,102222.73
2019-02-04T10:17:22.957Z,102224.92
2019-02-04T10:19:54.714Z,102234.45
2019-02-04T10:22:26.407Z,102234.55
2019-02-04T10:24:58.048Z,102242.96
2019-02-04T10:27:30.021Z,102245.24
2019-02-04T10:30:01.707Z,102246.34
2019-02-04T10:32:33.473Z,102239.11
2019-02-04T10:35:16.616Z,102239.53
2019-02-04T10:37:41.324Z,102246.23
2019-02-04T10:40:20.255Z,102243.30
2019-02-04T10:42:51.847Z,102229.82
2019-02-04T10:45:23.629Z,102243.30
2019-02-04T10:47:55.307Z,102230.39
2019-02-04T10:50:45.130Z,102235.61
2019-02-04T10:53:09.441Z,102233.72
2019-02-04T10:55:41.133Z,102240.31
2019-02-04T10:58:14.844Z,102241.64
2019-02-04T11:00:46.615Z,102237.77
2019-02-04T11:03:20.052Z,102239.50
2019-02-04T11:05:51.696Z,102235.30
2019-02-04T11:08:23.466Z,102243.36
2019-02-04T11:10:55.251Z,102241.37
2019-02-04T11:13:27.813Z,102249.69
2019-02-04T11:15:59.533Z,102252.61
2019-02-04T11:18:31.151Z,102249.75
2019-02-04T11:21:02.936Z,102254.97
2019-02-04T11:23:34.582Z,102265.85
2019-02-04T11:26:06.423Z,102270.18
2019-02-04T11:28:38.495Z,102271.54
2019-02-04T11:31:10.250Z,102269.47
2019-02-04T11:33:41.975Z,102271.88
2019-02-04T11:36:13.720Z,102277.16
2019-02-04T11:38:45.376Z,102285.69
2019-02-04T11:41:17.305Z,102295.87
2019-02-04T11:43:49.431Z,102301.62
2019-02-04T11:46:21.092Z,102296.61
2019-02-04T11:48:52.770Z,102303.57
2019-02-04T11:51:24.447Z,102302.84
2019-02-04T11:53:56.024Z,102311.41
2019-02-04T11:56:27.614Z,102317.30
2019-02-04T11:58:59.783Z,102316.53
2019-02-04T12:01:31.418Z,102324.23
2019-02-04T12:04:02.980Z,102315.89
2019-02-04T12:06:34.582Z,102318.27
2019-02-04T12:09:08.346Z,102317.56
2019-02-04T12:11:39.985Z,102323.20
2019-02-04T12:14:12.120Z,102325.88
2019-02-04T12:16:45.361Z,102323.39
2019-02-04T12:19:17.017Z,102324.46
2019-02-04T12:21:48.691Z,102335.62
2019-02-04T12:24:20.352Z,102336.13
2019-02-04T12:26:52.619Z,102334.99
2019-02-04T12:29:24.861Z,102342.34
2019-02-04T12:31:56.518Z,102337.11
2019-02-04T12:34:28.092Z,102343.86
2019-02-04T12:36:59.833Z,102342.16
2019-02-04T12:39:31.484Z,102346.92
2019-02-04T12:42:03.531Z,102349.05
2019-02-04T12:44:36.741Z,102354.24
2019-02-04T12:47:09.084Z,102353.60
2019-02-04T12:49:40.671Z,102353.78
2019-02-04T12:52:12.558Z,102351.48
2019-02-04T12:54:44.224Z,102356.91
2019-02-04T12:57:15.997Z,102350.42
2019-02-04T12:59:48.078Z,102348.23
2019-02-04T13:02:19.779Z,102349.20
2019-02-04T13:04:51.500Z,102351.95
2019-02-04T13:07:23.088Z,102345.09
2019-02-04T13:09:54.694Z,102350.69
2019-02-04T13:12:26.449Z,102350.41
2019-02-04T13:14:58.931Z,102359.98
2019-02-04T13:17:30.600Z,102351.68
2019-02-04T13:20:02.176Z,102357.71
2019-02-04T13:22:33.939Z,102358.48
2019-02-04T13:25:10.357Z,102355.80
2019-02-04T13:27:42.001Z,102367.92
2019-02-04T13:30:18.675Z,102365.96
2019-02-04T13:32:50.398Z,102374.13
2019-02-04T13:35:22.136Z,102370.05
2019-02-04T13:37:54.222Z,102375.52
2019-02-04T13:40:32.069Z,102380.48
2019-02-04T13:43:03.665Z,102376.48
2019-02-04T13:45:35.719Z,102376.33
2019-02-04T13:48:08.588Z,102379.08
2019-02-04T13:50:40.536Z,102383.80
2019-02-04T13:53:12.197Z,102375.02
2019-02-04T13:55:43.825Z,102374.49
2019-02-04T13:58:15.414Z,102375.30
2019-02-04T14:00:47.456Z,102377.91
2019-02-04T14:03:19.227Z,102377.00
2019-02-04T14:05:50.814Z,102377.48
2019-02-04T14:08:22.407Z,102385.81
2019-02-04T14:10:54.188Z,102387.23
2019-02-04T14:13:26.231Z,102389.13
2019-02-04T14:15:58.060Z,102385.69
2019-02-04T14:18:29.658Z,102388.56
2019-02-04T14:21:01.295Z,102390.14
2019-02-04T14:23:33.969Z,102384.39
2019-02-04T14:26:06.729Z,102384.66
2019-02-04T14:28:38.349Z,102391.18
2019-02-04T14:31:10.065Z,102388.78
2019-02-04T14:33:41.770Z,102386.88
2019-02-04T14:36:13.489Z,102383.45
2019-02-04T14:38:45.085Z,102391.59
2019-02-04T14:41:16.875Z,102391.78
2019-02-04T14:43:48.655Z,102403.47
2019-02-04T14:46:28.073Z,102404.77
2019-02-04T14:49:22.767Z,102401.32
2019-02-04T14:52:24.083Z,102397.30
2019-02-04T14:55:19.049Z,102392.13
2019-02-04T14:58:18.410Z,102399.40
2019-02-04T15:01:20.049Z,102400.73
2019-02-04T15:04:19.526Z,102399.44
2019-02-04T15:07:16.531Z,102390.45
2019-02-04T15:10:07.784Z,102394.74
2019-02-04T15:13:12.513Z,102389.00
2019-02-04T15:16:00.729Z,102393.27
2019-02-04T15:19:10.598Z,102382.45
2019-02-04T15:22:09.618Z,102378.60
2019-02-04T15:25:17.881Z,102381.92
2019-02-04T15:28:09.437Z,102382.69
2019-02-04T15:30:45.968Z,102381.43
2019-02-04T15:33:34.629Z,102391.33
2019-02-04T15:36:41.855Z,102388.42
2019-02-04T15:39:27.555Z,102393.28
2019-02-04T15:42:12.752Z,102393.38
2019-02-04T15:44:50.356Z,102388.92
2019-02-04T15:47:35.937Z,102392.16
2019-02-04T15:50:45.729Z,102388.41
2019-02-04T15:53:17.351Z,102374.47
2019-02-04T15:55:49.016Z,102368.48
2019-02-04T15:58:20.882Z,102366.52
2019-02-04T16:00:52.794Z,102361.08
2019-02-04T16:03:24.395Z,102361.03
2019-02-04T16:27:13.316Z,102389.76
2019-02-04T16:29:45.574Z,102396.16
2019-02-04T16:32:18.293Z,102396.69
2019-02-04T16:34:50.017Z,102400.77
2019-02-04T16:37:21.674Z,102396.03
2019-02-04T16:39:53.544Z,102397.03
2019-02-04T16:42:25.178Z,102402.28
2019-02-04T16:44:56.830Z,102399.11
2019-02-04T16:47:28.420Z,102396.48
2019-02-04T16:50:00.186Z,102398.73
2019-02-04T16:52:31.986Z,102393.83
2019-02-04T16:55:06.211Z,102396.56
2019-02-04T16:57:37.779Z,102398.27
2019-02-04T17:00:14.277Z,102390.00
2019-02-04T17:02:45.953Z,102390.70
2019-02-04T17:05:18.302Z,102383.84
2019-02-04T17:07:50.104Z,102383.67
2019-02-04T17:10:25.061Z,102390.44
2019-02-04T17:12:56.643Z,102391.35
2019-02-04T17:15:28.656Z,102390.22
2019-02-04T17:18:00.317Z,102395.21
2019-02-04T17:20:32.582Z,102401.50
2019-02-04T17:23:04.191Z,102391.95
2019-02-04T17:25:36.095Z,102397.98
2019-02-04T17:28:08.975Z,102395.16
2019-02-04T17:30:40.736Z,102392.30
2019-02-04T17:33:12.436Z,102396.16
2019-02-04T17:35:44.082Z,102403.27
2019-02-04T17:38:15.842Z,102408.79
2019-02-04T17:40:48.616Z,102410.81
2019-02-04T17:43:20.321Z,102413.02
2019-02-04T17:45:53.087Z,102410.58
2019-02-04T17:48:24.840Z,102410.17
2019-02-04T17:50:56.392Z,102410.48
2019-02-04T17:53:34.405Z,102413.11
2019-02-04T17:56:03.352Z,102408.88
2019-02-04T17:58:34.945Z,102419.94
2019-02-04T18:01:07.479Z,102405.94
2019-02-04T18:03:39.981Z,102419.90
2019-02-04T18:06:11.599Z,102415.49
2019-02-04T18:08:43.615Z,102417.74
2019-02-04T18:11:15.280Z,102413.46
2019-02-04T18:13:46.914Z,102417.28
2019-02-04T18:16:18.779Z,102423.11
2019-02-04T18:18:50.513Z,102424.13
2019-02-04T18:21:22.814Z,102427.80
2019-02-04T18:23:54.488Z,102431.05
2019-02-04T18:26:27.804Z,102429.53
2019-02-04T18:29:00.277Z,102428.62
2019-02-04T18:31:34.076Z,102432.89
2019-02-04T18:34:05.321Z,102433.48
2019-02-04T18:36:36.891Z,102439.18
2019-02-04T18:39:09.246Z,102433.86
2019-02-04T18:41:40.842Z,102430.64
2019-02-04T18:44:12.443Z,102433.30
2019-02-04T18:46:44.346Z,102435.88
2019-02-04T18:49:15.923Z,102431.10
2019-02-04T18:51:48.548Z,102429.44
2019-02-04T18:54:20.131Z,102432.20
2019-02-04T18:56:51.722Z,102429.83
2019-02-04T18:59:23.371Z,102432.88
2019-02-04T19:01:55.143Z,102425.34
2019-02-04T19:04:27.103Z,102419.05
2019-02-04T19:06:58.687Z,102414.72
2019-02-04T19:09:30.289Z,102425.09
2019-02-04T19:12:01.927Z,102419.20
2019-02-04T19:14:33.915Z,102426.23
2019-02-04T19:17:05.502Z,102421.55
2019-02-04T19:19:37.072Z,102423.88
2019-02-04T19:22:08.738Z,102430.75
2019-02-04T19:24:40.396Z,102429.70
2019-02-04T19:27:12.366Z,102429.90
2019-02-04T19:29:43.940Z,102433.39
2019-02-04T19:32:15.523Z,102431.88
2019-02-04T19:34:47.113Z,102432.66
2019-02-04T19:37:18.742Z,102432.16
2019-02-04T19:39:50.696Z,102434.77
2019-02-04T19:42:22.403Z,102426.92
2019-02-04T19:44:53.988Z,102430.59
2019-02-04T19:47:25.571Z,102435.00
2019-02-04T19:49:57.149Z,102436.97
2019-02-04T19:52:29.129Z,102438.36
2019-02-04T19:55:00.700Z,102436.80
2019-02-04T19:57:32.435Z,102433.76
2019-02-04T20:00:06.929Z,102435.27
2019-02-04T20:02:41.028Z,102434.81
2019-02-04T20:05:16.741Z,102435.48
2019-02-04T20:07:48.319Z,102435.99
2019-02-04T20:10:22.420Z,102426.53
2019-02-04T20:12:54.066Z,102430.60
2019-02-04T20:15:31.429Z,102434.41
2019-02-04T20:18:03.185Z,102438.86
2019-02-04T20:20:34.770Z,102432.38
2019-02-04T20:23:06.415Z,102428.08
2019-02-04T20:25:38.168Z,102424.62
2019-02-04T20:28:11.350Z,102426.05
2019-02-04T20:30:46.517Z,102426.14
2019-02-04T20:33:18.244Z,102418.83
2019-02-04T20:35:50.937Z,102420.63
2019-02-04T20:38:22.587Z,102416.67
2019-02-04T20:40:54.159Z,102423.89
2019-02-04T20:43:25.820Z,102424.20
2019-02-04T20:45:57.577Z,102425.20
2019-02-04T20:48:29.131Z,102428.80
2019-02-04T20:51:00.778Z,102426.58
2019-02-04T20:53:32.559Z,102423.66
2019-02-04T20:56:04.454Z,102424.21
2019-02-04T20:58:36.098Z,102420.31
2019-02-04T21:01:08.740Z,102421.69
2019-02-04T21:03:40.317Z,102426.19
2019-02-04T21:06:11.892Z,102418.06
2019-02-04T21:08:43.447Z,102420.82
2019-02-04T21:11:15.629Z,102418.61
2019-02-04T21:13:47.370Z,102416.09
2019-02-04T21:16:19.048Z,102409.75
2019-02-04T21:18:50.892Z,102406.41
2019-02-04T21:21:23.897Z,102401.55
2019-02-04T21:23:55.846Z,102396.00
2019-02-04T21:26:27.527Z,102398.47
2019-02-04T21:28:59.088Z,102403.55
2019-02-04T21:31:30.652Z,102388.36
2019-02-04T21:34:02.692Z,102402.39
2019-02-04T21:36:34.949Z,102394.05
2019-02-04T21:39:07.799Z,102395.33
2019-02-04T21:41:39.992Z,102389.70
2019-02-04T21:44:11.551Z,102389.05
2019-02-04T21:46:43.118Z,102386.80
2019-02-04T21:49:15.776Z,102381.38
2019-02-04T21:51:47.361Z,102390.69
2019-02-04T21:54:19.204Z,102382.19
2019-02-04T21:56:50.845Z,102384.85
2019-02-04T21:59:22.495Z,102381.79
2019-02-04T22:01:54.159Z,102389.72
2019-02-04T22:04:25.806Z,102391.56
2019-02-04T22:06:57.875Z,102383.98
2019-02-04T22:09:29.589Z,102387.81
2019-02-04T22:12:01.318Z,102379.27
2019-02-04T22:14:34.087Z,102379.13
2019-02-04T22:17:05.710Z,102378.50
2019-02-04T22:19:37.283Z,102372.55
2019-02-04T22:22:08.884Z,102373.66
2019-02-04T22:24:40.505Z,102365.51
2019-02-04T22:27:12.091Z,102371.69
2019-02-04T22:29:43.685Z,102362.04
2019-02-04T22:32:15.239Z,102369.59
2019-02-04T22:34:47.003Z,102364.59
2019-02-04T22:37:18.583Z,102369.09
2019-02-04T22:39:50.169Z,102370.67
2019-02-04T22:42:21.742Z,102371.05
2019-02-04T22:44:53.322Z,102371.80
2019-02-04T22:47:24.964Z,102379.37
2019-02-04T22:49:56.524Z,102368.16
2019-02-04T22:52:29.173Z,102374.17
2019-02-04T22:55:00.785Z,102376.06
2019-02-04T22:57:32.435Z,102379.59
2019-02-04T23:00:06.375Z,102369.50
2019-02-04T23:02:38.037Z,102372.55
2019-02-04T23:05:09.616Z,102370.71
2019-02-04T23:07:41.241Z,102372.75
2019-02-04T23:10:13.259Z,102367.80
2019-02-04T23:12:46.403Z,102362.57
2019-02-04T23:15:18.090Z,102364.95
2019-02-04T23:17:49.808Z,102360.50
2019-02-04T23:20:21.463Z,102358.59
2019-02-04T23:22:53.356Z,102355.27
2019-02-04T23:25:24.995Z,102361.33
2019-02-04T23:27:56.627Z,102355.14
2019-02-04T23:30:28.259Z,102360.16
2019-02-04T23:32:59.857Z,102360.16
2019-02-04T23:35:31.438Z,102356.00
2019-02-04T23:38:04.583Z,102353.34
2019-02-04T23:40:36.149Z,102351.22
2019-02-04T23:43:07.766Z,102353.17
2019-02-04T23:45:39.322Z,102349.50
2019-02-04T23:48:11.051Z,102352.78
2019-02-04T23:50:42.641Z,102353.36
2019-02-04T23:53:14.219Z,102349.83
2019-02-04T23:55:54.282Z,102349.88
2019-02-04T23:58:19.175Z,102345.16
